createdAt,value
2018-02-14T00:00:34.464Z,-0.52
2018-02-14T00:01:34.437Z,-0.49
2018-02-14T00:02:34.416Z,-0.54
2018-02-14T00:03:34.399Z,-0.46
2018-02-14T00:04:34.367Z,-0.54
2018-02-14T00:05:34.343Z,-0.51
2018-02-14T00:06:34.319Z,-0.47
2018-02-14T00:07:34.296Z,-0.46
2018-02-14T00:08:34.274Z,-0.49
2018-02-14T00:09:34.250Z,-0.46
2018-02-14T00:10:34.226Z,-0.49
2018-02-14T00:11:34.200Z,-0.52
2018-02-14T00:12:34.177Z,-0.55
2018-02-14T00:13:34.153Z,-0.58
2018-02-14T00:14:34.130Z,-0.55
2018-02-14T00:15:34.108Z,-0.51
2018-02-14T00:16:34.084Z,-0.58
2018-02-14T00:17:34.060Z,-0.60
2018-02-14T00:18:34.034Z,-0.60
2018-02-14T00:19:34.012Z,-0.58
2018-02-14T00:20:34.289Z,-0.52
2018-02-14T00:21:33.965Z,-0.60
2018-02-14T00:22:33.941Z,-0.55
2018-02-14T00:23:33.916Z,-0.64
2018-02-14T00:24:33.891Z,-0.76
2018-02-14T00:25:33.868Z,-0.73
2018-02-14T00:26:33.842Z,-0.67
2018-02-14T00:27:33.817Z,-0.73
2018-02-14T00:28:33.802Z,-0.67
2018-02-14T00:29:33.770Z,-0.69
2018-02-14T00:30:33.747Z,-0.65
2018-02-14T00:31:33.724Z,-0.73
2018-02-14T00:32:33.697Z,-0.69
2018-02-14T00:33:33.673Z,-0.60
2018-02-14T00:34:33.648Z,-0.69
2018-02-14T00:35:33.626Z,-0.70
2018-02-14T00:36:33.601Z,-0.73
2018-02-14T00:37:33.587Z,-0.70
2018-02-14T00:38:33.556Z,-0.78
2018-02-14T00:39:33.533Z,-0.70
2018-02-14T00:40:33.509Z,-0.69
2018-02-14T00:41:33.483Z,-0.65
2018-02-14T00:42:33.457Z,-0.70
2018-02-14T00:43:33.438Z,-0.70
2018-02-14T00:44:33.414Z,-0.73
2018-02-14T00:45:33.396Z,-0.67
2018-02-14T00:46:33.366Z,-0.82
2018-02-14T00:47:33.337Z,-0.91
2018-02-14T00:48:33.317Z,-0.99
2018-02-14T00:49:33.293Z,-1.01
2018-02-14T00:50:33.265Z,-1.02
2018-02-14T00:51:33.249Z,-1.01
2018-02-14T00:52:33.217Z,-0.99
2018-02-14T00:53:33.195Z,-0.99
2018-02-14T00:54:33.172Z,-1.01
2018-02-14T00:55:33.146Z,-0.98
2018-02-14T00:56:33.119Z,-1.04
2018-02-14T00:57:33.099Z,-1.04
2018-02-14T00:58:33.076Z,-1.01
2018-02-14T00:59:33.054Z,-0.94
2018-02-14T01:00:33.030Z,-1.04
2018-02-14T01:01:33.256Z,-0.97
2018-02-14T01:02:32.977Z,-0.99
2018-02-14T01:03:32.953Z,-0.98
2018-02-14T01:04:32.929Z,-1.02
2018-02-14T01:05:32.913Z,-0.99
2018-02-14T01:06:32.881Z,-1.01
2018-02-14T01:07:32.857Z,-1.04
2018-02-14T01:08:32.834Z,-1.15
2018-02-14T01:09:32.807Z,-1.07
2018-02-14T01:10:32.786Z,-1.10
2018-02-14T01:11:32.761Z,-1.09
2018-02-14T01:12:32.736Z,-1.02
2018-02-14T01:13:32.716Z,-1.02
2018-02-14T01:14:32.690Z,-0.99
2018-02-14T01:15:32.666Z,-1.04
2018-02-14T01:16:32.637Z,-1.01
2018-02-14T01:17:32.617Z,-0.97
2018-02-14T01:18:32.596Z,-0.98
2018-02-14T01:19:32.567Z,-0.99
2018-02-14T01:20:32.547Z,-1.12
2018-02-14T01:21:32.526Z,-1.01
2018-02-14T01:22:32.497Z,-1.01
2018-02-14T01:23:32.479Z,-0.99
2018-02-14T01:24:32.445Z,-0.98
2018-02-14T01:25:32.420Z,-0.98
2018-02-14T01:26:32.403Z,-0.95
2018-02-14T01:27:32.374Z,-1.02
2018-02-14T01:28:32.356Z,-1.07
2018-02-14T01:29:32.327Z,-1.02
2018-02-14T01:30:32.314Z,-1.10
2018-02-14T01:31:32.278Z,-1.09
2018-02-14T01:32:32.253Z,-1.04
2018-02-14T01:33:32.226Z,-1.05
2018-02-14T01:34:32.203Z,-1.07
2018-02-14T01:35:32.182Z,-1.04
2018-02-14T01:36:32.154Z,-1.07
2018-02-14T01:37:32.137Z,-1.05
2018-02-14T01:38:32.108Z,-1.05
2018-02-14T01:39:32.085Z,-1.10
2018-02-14T01:40:32.064Z,-1.07
2018-02-14T01:41:32.037Z,-1.05
2018-02-14T01:42:32.013Z,-1.10
2018-02-14T01:43:31.987Z,-1.07
2018-02-14T01:44:31.965Z,-1.05
2018-02-14T01:45:31.939Z,-1.02
2018-02-14T01:46:31.917Z,-0.99
2018-02-14T01:47:31.897Z,-0.99
2018-02-14T01:48:31.865Z,-0.98
2018-02-14T01:49:31.840Z,-1.01
2018-02-14T01:50:31.817Z,-1.07
2018-02-14T01:51:31.794Z,-1.12
2018-02-14T01:52:31.773Z,-1.13
2018-02-14T01:53:31.747Z,-1.05
2018-02-14T01:54:31.722Z,-1.09
2018-02-14T01:55:31.696Z,-1.13
2018-02-14T01:56:31.677Z,-1.05
2018-02-14T01:57:31.651Z,-1.09
2018-02-14T01:58:31.630Z,-1.04
2018-02-14T01:59:31.605Z,-1.02
2018-02-14T02:00:31.574Z,-1.16
2018-02-14T02:01:31.554Z,-1.09
2018-02-14T02:02:31.526Z,-1.12
2018-02-14T02:03:31.510Z,-0.99
2018-02-14T02:04:31.482Z,-1.15
2018-02-14T02:05:31.458Z,-1.05
2018-02-14T02:06:31.432Z,-1.04
2018-02-14T02:07:31.406Z,-1.07
2018-02-14T02:08:31.383Z,-1.07
2018-02-14T02:09:31.360Z,-1.01
2018-02-14T02:10:31.333Z,-1.04
2018-02-14T02:11:31.308Z,-1.05
2018-02-14T02:12:31.285Z,-1.04
2018-02-14T02:13:31.263Z,-1.01
2018-02-14T02:14:31.236Z,-0.99
2018-02-14T02:15:31.217Z,-1.04
2018-02-14T02:16:31.198Z,-1.05
2018-02-14T02:17:31.167Z,-1.09
2018-02-14T02:18:31.142Z,-1.07
2018-02-14T02:19:31.116Z,-1.12
2018-02-14T02:20:31.093Z,-1.15
2018-02-14T02:21:31.066Z,-1.15
2018-02-14T02:22:31.047Z,-1.12
2018-02-14T02:23:31.020Z,-1.19
2018-02-14T02:24:30.997Z,-1.15
2018-02-14T02:25:30.972Z,-1.09
2018-02-14T02:26:30.946Z,-1.05
2018-02-14T02:27:30.921Z,-1.05
2018-02-14T02:28:30.896Z,-1.07
2018-02-14T02:29:30.878Z,-1.15
2018-02-14T02:30:30.849Z,-1.15
2018-02-14T02:31:30.825Z,-1.15
2018-02-14T02:32:30.801Z,-1.15
2018-02-14T02:33:30.776Z,-1.28
2018-02-14T02:34:30.753Z,-1.25
2018-02-14T02:35:30.736Z,-1.31
2018-02-14T02:36:30.706Z,-1.27
2018-02-14T02:37:30.679Z,-1.25
2018-02-14T02:38:30.657Z,-1.27
2018-02-14T02:39:30.633Z,-1.27
2018-02-14T02:40:30.606Z,-1.25
2018-02-14T02:41:30.590Z,-1.28
2018-02-14T02:42:30.560Z,-1.27
2018-02-14T02:43:30.533Z,-1.38
2018-02-14T02:44:30.510Z,-1.31
2018-02-14T02:45:30.488Z,-1.28
2018-02-14T02:46:30.463Z,-1.41
2018-02-14T02:47:30.436Z,-1.37
2018-02-14T02:48:30.413Z,-1.33
2018-02-14T02:49:30.387Z,-1.28
2018-02-14T02:50:30.367Z,-1.34
2018-02-14T02:51:30.337Z,-1.35
2018-02-14T02:52:30.316Z,-1.34
2018-02-14T02:53:30.293Z,-1.38
2018-02-14T02:54:30.268Z,-1.38
2018-02-14T02:55:30.246Z,-1.40
2018-02-14T02:56:30.218Z,-1.34
2018-02-14T02:57:30.197Z,-1.35
2018-02-14T02:58:30.169Z,-1.30
2018-02-14T02:59:30.143Z,-1.31
2018-02-14T03:00:30.118Z,-1.40
2018-02-14T03:01:30.110Z,-1.38
2018-02-14T03:02:30.078Z,-1.33
2018-02-14T03:03:30.050Z,-1.35
2018-02-14T03:04:30.028Z,-1.40
2018-02-14T03:05:29.997Z,-1.48
2018-02-14T03:06:29.975Z,-1.34
2018-02-14T03:07:29.951Z,-1.33
2018-02-14T03:08:29.927Z,-1.41
2018-02-14T03:09:29.905Z,-1.35
2018-02-14T03:10:29.880Z,-1.46
2018-02-14T03:11:29.857Z,-1.37
2018-02-14T03:12:29.827Z,-1.51
2018-02-14T03:13:29.806Z,-1.49
2018-02-14T03:14:29.779Z,-1.43
2018-02-14T03:15:29.761Z,-1.54
2018-02-14T03:16:29.732Z,-1.52
2018-02-14T03:17:29.704Z,-1.48
2018-02-14T03:18:29.681Z,-1.45
2018-02-14T03:19:29.658Z,-1.41
2018-02-14T03:20:29.633Z,-1.40
2018-02-14T03:21:29.611Z,-1.45
2018-02-14T03:22:29.582Z,-1.41
2018-02-14T03:23:29.562Z,-1.41
2018-02-14T03:24:29.537Z,-1.45
2018-02-14T03:25:29.513Z,-1.40
2018-02-14T03:26:29.489Z,-1.41
2018-02-14T03:27:29.467Z,-1.41
2018-02-14T03:28:29.435Z,-1.43
2018-02-14T03:29:29.416Z,-1.46
2018-02-14T03:30:29.388Z,-1.40
2018-02-14T03:31:29.364Z,-1.41
2018-02-14T03:32:29.347Z,-1.46
2018-02-14T03:33:29.316Z,-1.41
2018-02-14T03:34:29.300Z,-1.41
2018-02-14T03:35:29.267Z,-1.46
2018-02-14T03:36:29.243Z,-1.38
2018-02-14T03:37:29.219Z,-1.46
2018-02-14T03:38:29.198Z,-1.45
2018-02-14T03:39:29.169Z,-1.40
2018-02-14T03:40:29.149Z,-1.45
2018-02-14T03:41:29.120Z,-1.40
2018-02-14T03:42:29.097Z,-1.41
2018-02-14T03:43:29.073Z,-1.45
2018-02-14T03:44:29.046Z,-1.48
2018-02-14T03:45:29.022Z,-1.48
2018-02-14T03:46:28.998Z,-1.46
2018-02-14T03:47:28.974Z,-1.48
2018-02-14T03:48:28.951Z,-1.37
2018-02-14T03:49:28.932Z,-1.48
2018-02-14T03:50:28.908Z,-1.33
2018-02-14T03:51:28.877Z,-1.38
2018-02-14T03:52:28.851Z,-1.38
2018-02-14T03:53:28.826Z,-1.48
2018-02-14T03:54:28.806Z,-1.45
2018-02-14T03:55:28.777Z,-1.48
2018-02-14T03:56:28.751Z,-1.55
2018-02-14T03:57:28.727Z,-1.40
2018-02-14T03:58:28.704Z,-1.48
2018-02-14T03:59:28.686Z,-1.45
2018-02-14T04:00:28.661Z,-1.45
2018-02-14T04:01:28.630Z,-1.45
2018-02-14T04:02:28.606Z,-1.51
2018-02-14T04:03:28.584Z,-1.45
2018-02-14T04:04:28.556Z,-1.54
2018-02-14T04:05:28.538Z,-1.48
2018-02-14T04:06:28.507Z,-1.52
2018-02-14T04:07:28.486Z,-1.46
2018-02-14T04:08:28.458Z,-1.55
2018-02-14T04:09:28.433Z,-1.49
2018-02-14T04:10:28.416Z,-1.51
2018-02-14T04:11:28.385Z,-1.38
2018-02-14T04:12:28.361Z,-1.49
2018-02-14T04:13:28.338Z,-1.45
2018-02-14T04:14:28.315Z,-1.43
2018-02-14T04:15:28.290Z,-1.48
2018-02-14T04:16:28.270Z,-1.43
2018-02-14T04:17:28.243Z,-1.35
2018-02-14T04:18:28.214Z,-1.37
2018-02-14T04:19:28.195Z,-1.40
2018-02-14T04:20:28.169Z,-1.48
2018-02-14T04:21:28.140Z,-1.51
2018-02-14T04:22:28.117Z,-1.54
2018-02-14T04:23:28.091Z,-1.51
2018-02-14T04:24:28.066Z,-1.64
2018-02-14T04:25:28.048Z,-1.58
2018-02-14T04:26:28.024Z,-1.62
2018-02-14T04:27:28.001Z,-1.70
2018-02-14T04:28:27.971Z,-1.59
2018-02-14T04:29:27.949Z,-1.54
2018-02-14T04:30:27.929Z,-1.56
2018-02-14T04:31:27.901Z,-1.62
2018-02-14T04:32:27.877Z,-1.62
2018-02-14T04:33:27.846Z,-1.62
2018-02-14T04:34:28.085Z,-1.59
2018-02-14T04:35:27.798Z,-1.64
2018-02-14T04:36:27.774Z,-1.66
2018-02-14T04:37:27.752Z,-1.59
2018-02-14T04:38:27.724Z,-1.58
2018-02-14T04:39:27.702Z,-1.72
2018-02-14T04:40:27.677Z,-1.61
2018-02-14T04:41:27.659Z,-1.56
2018-02-14T04:42:27.627Z,-1.61
2018-02-14T04:43:27.611Z,-1.58
2018-02-14T04:44:27.576Z,-1.56
2018-02-14T04:45:27.560Z,-1.62
2018-02-14T04:46:27.526Z,-1.61
2018-02-14T04:47:27.508Z,-1.61
2018-02-14T04:48:27.478Z,-1.64
2018-02-14T04:49:27.463Z,-1.67
2018-02-14T04:50:27.431Z,-1.61
2018-02-14T04:51:27.406Z,-1.76
2018-02-14T04:52:27.383Z,-1.66
2018-02-14T04:53:27.356Z,-1.70
2018-02-14T04:54:27.380Z,-1.56
2018-02-14T04:55:27.306Z,-1.70
2018-02-14T04:56:27.281Z,-1.66
2018-02-14T04:57:27.262Z,-1.59
2018-02-14T04:58:27.235Z,-1.61
2018-02-14T04:59:27.211Z,-1.59
2018-02-14T05:00:27.186Z,-1.64
2018-02-14T05:01:27.163Z,-1.69
2018-02-14T05:02:27.137Z,-1.70
2018-02-14T05:03:27.113Z,-1.66
2018-02-14T05:04:27.088Z,-1.73
2018-02-14T05:05:27.062Z,-1.69
2018-02-14T05:06:27.038Z,-1.72
2018-02-14T05:07:27.011Z,-1.73
2018-02-14T05:08:26.989Z,-1.73
2018-02-14T05:09:26.966Z,-1.76
2018-02-14T05:10:26.942Z,-1.72
2018-02-14T05:11:26.917Z,-1.74
2018-02-14T05:12:26.895Z,-1.70
2018-02-14T05:13:26.867Z,-1.70
2018-02-14T05:14:26.845Z,-1.69
2018-02-14T05:15:26.826Z,-1.73
2018-02-14T05:16:26.796Z,-1.79
2018-02-14T05:17:26.776Z,-1.80
2018-02-14T05:18:26.747Z,-1.73
2018-02-14T05:19:26.716Z,-1.76
2018-02-14T05:20:26.692Z,-1.77
2018-02-14T05:21:26.669Z,-1.77
2018-02-14T05:22:26.644Z,-1.82
2018-02-14T05:23:26.621Z,-1.80
2018-02-14T05:24:26.596Z,-1.79
2018-02-14T05:25:26.576Z,-1.77
2018-02-14T05:26:26.544Z,-1.77
2018-02-14T05:27:26.525Z,-1.77
2018-02-14T05:28:26.498Z,-1.80
2018-02-14T05:29:26.472Z,-1.77
2018-02-14T05:30:26.447Z,-1.76
2018-02-14T05:31:26.424Z,-1.88
2018-02-14T05:32:26.397Z,-1.85
2018-02-14T05:33:26.375Z,-1.77
2018-02-14T05:34:26.350Z,-1.79
2018-02-14T05:35:26.329Z,-1.80
2018-02-14T05:36:26.302Z,-1.84
2018-02-14T05:37:26.276Z,-1.91
2018-02-14T05:38:26.259Z,-1.79
2018-02-14T05:39:26.229Z,-1.82
2018-02-14T05:40:26.201Z,-1.80
2018-02-14T05:41:26.177Z,-1.82
2018-02-14T05:42:26.153Z,-1.87
2018-02-14T05:43:26.129Z,-1.79
2018-02-14T05:44:26.106Z,-1.95
2018-02-14T05:45:26.085Z,-1.91
2018-02-14T05:46:26.054Z,-1.82
2018-02-14T05:47:26.035Z,-1.92
2018-02-14T05:48:26.003Z,-1.79
2018-02-14T05:49:25.987Z,-1.98
2018-02-14T05:50:25.955Z,-1.82
2018-02-14T05:51:25.931Z,-1.90
2018-02-14T05:52:25.907Z,-1.95
2018-02-14T05:53:25.883Z,-1.92
2018-02-14T05:54:25.860Z,-1.94
2018-02-14T05:55:25.833Z,-1.80
2018-02-14T05:56:25.808Z,-1.94
2018-02-14T05:57:25.782Z,-1.88
2018-02-14T05:58:25.761Z,-1.88
2018-02-14T05:59:25.737Z,-1.90
2018-02-14T06:00:25.753Z,-1.88
2018-02-14T06:01:25.690Z,-1.92
2018-02-14T06:02:25.660Z,-1.92
2018-02-14T06:03:25.636Z,-1.95
2018-02-14T06:04:25.608Z,-1.77
2018-02-14T06:05:25.584Z,-1.88
2018-02-14T06:06:25.566Z,-1.80
2018-02-14T06:07:25.538Z,-1.82
2018-02-14T06:08:25.524Z,-1.88
2018-02-14T06:09:25.491Z,-1.84
2018-02-14T06:10:25.463Z,-1.85
2018-02-14T06:11:25.437Z,-1.84
2018-02-14T06:12:25.420Z,-1.82
2018-02-14T06:13:25.388Z,-1.82
2018-02-14T06:14:25.364Z,-1.84
2018-02-14T06:15:25.340Z,-1.90
2018-02-14T06:16:25.317Z,-1.82
2018-02-14T06:17:25.288Z,-1.80
2018-02-14T06:18:25.264Z,-1.77
2018-02-14T06:19:25.240Z,-1.79
2018-02-14T06:20:25.216Z,-1.82
2018-02-14T06:21:25.195Z,-1.77
2018-02-14T06:22:25.165Z,-1.92
2018-02-14T06:23:25.142Z,-1.77
2018-02-14T06:24:25.118Z,-1.95
2018-02-14T06:25:25.100Z,-1.88
2018-02-14T06:26:25.067Z,-1.94
2018-02-14T06:27:25.041Z,-2.02
2018-02-14T06:28:25.043Z,-1.88
2018-02-14T06:29:24.999Z,-1.85
2018-02-14T06:30:24.969Z,-1.91
2018-02-14T06:31:24.944Z,-1.94
2018-02-14T06:32:24.923Z,-1.94
2018-02-14T06:33:24.898Z,-1.94
2018-02-14T06:34:24.874Z,-1.95
2018-02-14T06:35:24.848Z,-1.90
2018-02-14T06:36:24.820Z,-1.90
2018-02-14T06:37:24.797Z,-1.95
2018-02-14T06:38:24.772Z,-1.91
2018-02-14T06:39:24.750Z,-2.00
2018-02-14T06:40:24.724Z,-2.02
2018-02-14T06:41:24.697Z,-2.02
2018-02-14T06:42:24.678Z,-2.03
2018-02-14T06:43:24.653Z,-2.00
2018-02-14T06:44:24.624Z,-1.97
2018-02-14T06:45:24.609Z,-1.98
2018-02-14T06:46:24.874Z,-1.97
2018-02-14T06:47:24.550Z,-1.98
2018-02-14T06:48:24.528Z,-1.95
2018-02-14T06:49:24.504Z,-1.95
2018-02-14T06:50:24.479Z,-1.97
2018-02-14T06:51:24.457Z,-1.95
2018-02-14T06:52:24.429Z,-1.98
2018-02-14T06:53:24.407Z,-2.00
2018-02-14T06:54:24.374Z,-1.98
2018-02-14T06:55:24.352Z,-1.98
2018-02-14T06:56:24.326Z,-2.03
2018-02-14T06:57:24.303Z,-2.00
2018-02-14T06:58:24.278Z,-1.92
2018-02-14T06:59:24.256Z,-2.03
2018-02-14T07:00:24.227Z,-1.98
2018-02-14T07:01:24.213Z,-1.97
2018-02-14T07:02:24.185Z,-1.95
2018-02-14T07:03:24.153Z,-1.95
2018-02-14T07:04:24.127Z,-2.00
2018-02-14T07:05:24.106Z,-1.94
2018-02-14T07:06:24.079Z,-1.98
2018-02-14T07:07:24.056Z,-1.94
2018-02-14T07:08:24.034Z,-1.98
2018-02-14T07:09:24.007Z,-1.94
2018-02-14T07:10:23.980Z,-2.02
2018-02-14T07:11:23.954Z,-2.00
2018-02-14T07:12:23.930Z,-2.00
2018-02-14T07:13:23.914Z,-1.87
2018-02-14T07:14:23.882Z,-1.85
2018-02-14T07:15:23.855Z,-1.82
2018-02-14T07:16:23.834Z,-1.77
2018-02-14T07:17:23.850Z,-1.79
2018-02-14T07:18:23.789Z,-1.85
2018-02-14T07:19:23.756Z,-1.90
2018-02-14T07:20:23.734Z,-1.87
2018-02-14T07:21:23.707Z,-1.91
2018-02-14T07:22:23.684Z,-1.92
2018-02-14T07:23:23.656Z,-1.80
2018-02-14T07:24:23.633Z,-1.84
2018-02-14T07:25:23.605Z,-1.82
2018-02-14T07:26:23.586Z,-1.80
2018-02-14T07:27:23.564Z,-1.87
2018-02-14T07:28:23.537Z,-1.91
2018-02-14T07:29:23.508Z,-1.84
2018-02-14T07:30:23.483Z,-1.87
2018-02-14T07:31:23.461Z,-1.79
2018-02-14T07:32:23.435Z,-1.77
2018-02-14T07:33:23.410Z,-1.79
2018-02-14T07:34:23.385Z,-1.80
2018-02-14T07:35:23.371Z,-1.79
2018-02-14T07:36:23.333Z,-1.77
2018-02-14T07:37:23.310Z,-1.73
2018-02-14T07:38:23.284Z,-1.79
2018-02-14T07:39:23.261Z,-1.79
2018-02-14T07:40:23.238Z,-1.69
2018-02-14T07:41:23.214Z,-1.69
2018-02-14T07:42:23.190Z,-1.70
2018-02-14T07:43:23.163Z,-1.61
2018-02-14T07:44:23.136Z,-1.56
2018-02-14T07:45:23.114Z,-1.59
2018-02-14T07:46:23.090Z,-1.58
2018-02-14T07:47:23.065Z,-1.58
2018-02-14T07:48:23.037Z,-1.61
2018-02-14T07:49:23.016Z,-1.64
2018-02-14T07:50:22.992Z,-1.62
2018-02-14T07:51:22.967Z,-1.51
2018-02-14T07:52:22.936Z,-1.52
2018-02-14T07:53:22.917Z,-1.56
2018-02-14T07:54:22.895Z,-1.49
2018-02-14T07:55:22.865Z,-1.49
2018-02-14T07:56:22.838Z,-1.51
2018-02-14T07:57:22.814Z,-1.48
2018-02-14T07:58:22.793Z,-1.46
2018-02-14T07:59:22.766Z,-1.46
2018-02-14T08:00:22.745Z,-1.43
2018-02-14T08:01:22.716Z,-1.41
2018-02-14T08:02:22.696Z,-1.38
2018-02-14T08:03:22.678Z,-1.34
2018-02-14T08:04:22.642Z,-1.38
2018-02-14T08:05:22.623Z,-1.37
2018-02-14T08:06:22.595Z,-1.33
2018-02-14T08:07:22.570Z,-1.45
2018-02-14T08:08:22.549Z,-1.27
2018-02-14T08:09:22.523Z,-1.27
2018-02-14T08:10:22.500Z,-1.23
2018-02-14T08:11:22.469Z,-1.20
2018-02-14T08:12:22.456Z,-1.19
2018-02-14T08:13:22.424Z,-1.12
2018-02-14T08:14:22.397Z,-1.10
2018-02-14T08:15:22.387Z,-1.09
2018-02-14T08:16:22.348Z,-1.05
2018-02-14T08:17:22.320Z,-1.09
2018-02-14T08:18:22.304Z,-0.99
2018-02-14T08:19:22.275Z,-0.98
2018-02-14T08:20:22.257Z,-1.02
2018-02-14T08:21:22.226Z,-1.07
2018-02-14T08:22:22.200Z,-1.04
2018-02-14T08:23:22.175Z,-0.95
2018-02-14T08:24:22.153Z,-0.97
2018-02-14T08:25:22.125Z,-0.92
2018-02-14T08:26:22.102Z,-0.86
2018-02-14T08:27:22.079Z,-0.91
2018-02-14T08:28:22.054Z,-0.82
2018-02-14T08:29:22.032Z,-0.91
2018-02-14T08:30:22.011Z,-0.83
2018-02-14T08:31:21.985Z,-0.80
2018-02-14T08:32:21.959Z,-0.79
2018-02-14T08:33:21.927Z,-0.75
2018-02-14T08:34:21.905Z,-0.73
2018-02-14T08:35:21.880Z,-0.76
2018-02-14T08:36:21.859Z,-0.67
2018-02-14T08:37:21.829Z,-0.67
2018-02-14T08:38:21.810Z,-0.69
2018-02-14T08:39:21.783Z,-0.65
2018-02-14T08:40:21.758Z,-0.70
2018-02-14T08:41:21.731Z,-0.61
2018-02-14T08:42:21.706Z,-0.60
2018-02-14T08:43:21.686Z,-0.51
2018-02-14T08:44:21.657Z,-0.55
2018-02-14T08:45:21.633Z,-0.52
2018-02-14T08:46:21.607Z,-0.55
2018-02-14T08:47:21.584Z,-0.42
2018-02-14T08:48:21.562Z,-0.42
2018-02-14T08:49:21.536Z,-0.31
2018-02-14T08:50:21.515Z,-0.33
2018-02-14T08:51:21.485Z,-0.43
2018-02-14T08:52:21.463Z,-0.34
2018-02-14T08:53:21.434Z,-0.33
2018-02-14T08:54:21.412Z,-0.21
2018-02-14T08:55:21.386Z,-0.18
2018-02-14T08:56:21.364Z,-0.15
2018-02-14T08:57:21.343Z,-0.14
2018-02-14T08:58:21.316Z,-0.15
2018-02-14T08:59:21.291Z,-0.05
2018-02-14T09:00:21.266Z,-0.07
2018-02-14T09:01:21.246Z,0.00
2018-02-14T09:02:21.214Z,0.03
2018-02-14T09:03:21.196Z,-0.08
2018-02-14T09:04:21.165Z,0.04
2018-02-14T09:05:21.142Z,0.07
2018-02-14T09:06:21.117Z,0.15
2018-02-14T09:07:21.095Z,0.10
2018-02-14T09:08:21.070Z,0.08
2018-02-14T09:09:21.046Z,0.11
2018-02-14T09:10:21.024Z,0.07
2018-02-14T09:11:20.996Z,0.07
2018-02-14T09:12:20.972Z,0.20
2018-02-14T09:13:20.953Z,0.20
2018-02-14T09:14:20.925Z,0.23
2018-02-14T09:15:20.895Z,0.20
2018-02-14T09:16:20.874Z,0.23
2018-02-14T09:17:20.853Z,0.28
2018-02-14T09:18:20.827Z,0.23
2018-02-14T09:19:20.799Z,0.26
2018-02-14T09:20:20.778Z,0.32
2018-02-14T09:21:20.755Z,0.39
2018-02-14T09:22:20.725Z,0.33
2018-02-14T09:23:20.701Z,0.42
2018-02-14T09:24:20.676Z,0.44
2018-02-14T09:25:20.654Z,0.46
2018-02-14T09:26:20.627Z,0.46
2018-02-14T09:27:20.610Z,0.49
2018-02-14T09:28:20.577Z,0.38
2018-02-14T09:29:20.554Z,0.50
2018-02-14T09:30:20.536Z,0.58
2018-02-14T09:31:20.520Z,0.66
2018-02-14T09:32:20.489Z,0.62
2018-02-14T09:33:20.458Z,0.55
2018-02-14T09:34:20.434Z,0.73
2018-02-14T09:35:20.410Z,0.62
2018-02-14T09:36:20.385Z,0.65
2018-02-14T09:37:20.363Z,0.69
2018-02-14T09:38:20.336Z,0.78
2018-02-14T09:39:20.311Z,0.66
2018-02-14T09:40:20.289Z,0.72
2018-02-14T09:41:20.269Z,0.80
2018-02-14T09:42:20.244Z,0.83
2018-02-14T09:43:20.218Z,0.86
2018-02-14T09:44:20.188Z,0.84
2018-02-14T09:45:20.166Z,0.90
2018-02-14T09:46:20.139Z,0.90
2018-02-14T09:47:20.120Z,0.96
2018-02-14T09:48:20.096Z,0.98
2018-02-14T09:49:20.070Z,1.02
2018-02-14T09:50:20.044Z,0.97
2018-02-14T09:51:20.027Z,1.04
2018-02-14T09:52:19.996Z,1.05
2018-02-14T09:53:19.976Z,1.09
2018-02-14T09:54:19.950Z,1.11
2018-02-14T09:55:19.925Z,1.15
2018-02-14T09:56:19.900Z,1.08
2018-02-14T09:57:19.886Z,1.18
2018-02-14T09:58:19.855Z,1.22
2018-02-14T09:59:19.830Z,1.22
2018-02-14T10:00:19.804Z,1.29
2018-02-14T10:01:19.778Z,1.34
2018-02-14T10:02:19.756Z,1.48
2018-02-14T10:03:19.731Z,1.51
2018-02-14T10:04:19.706Z,1.45
2018-02-14T10:05:19.682Z,1.45
2018-02-14T10:06:19.660Z,1.41
2018-02-14T10:07:19.638Z,1.50
2018-02-14T10:08:19.610Z,1.60
2018-02-14T10:09:19.584Z,1.59
2018-02-14T10:10:19.576Z,1.72
2018-02-14T10:11:19.539Z,1.73
2018-02-14T10:12:19.511Z,1.86
2018-02-14T10:13:19.489Z,1.88
2018-02-14T10:14:19.468Z,2.03
2018-02-14T10:15:19.446Z,1.95
2018-02-14T10:16:19.416Z,1.93
2018-02-14T10:17:19.397Z,2.02
2018-02-14T10:18:19.377Z,2.02
2018-02-14T10:19:19.346Z,1.99
2018-02-14T10:20:19.321Z,2.02
2018-02-14T10:21:19.298Z,2.07
2018-02-14T10:22:19.277Z,2.06
2018-02-14T10:23:19.250Z,2.16
2018-02-14T10:24:19.226Z,2.16
2018-02-14T10:25:19.202Z,2.18
2018-02-14T10:26:19.179Z,2.20
2018-02-14T10:27:19.159Z,2.27
2018-02-14T10:28:19.131Z,2.25
2018-02-14T10:29:19.106Z,2.28
2018-02-14T10:30:19.083Z,2.31
2018-02-14T10:31:19.058Z,2.42
2018-02-14T10:32:19.035Z,2.43
2018-02-14T10:33:19.011Z,2.30
2018-02-14T10:34:19.000Z,2.42
2018-02-14T10:35:18.966Z,2.38
2018-02-14T10:36:18.940Z,2.41
2018-02-14T10:37:18.925Z,2.46
2018-02-14T10:38:18.892Z,2.45
2018-02-14T10:39:18.868Z,2.52
2018-02-14T10:40:18.847Z,2.43
2018-02-14T10:41:18.820Z,2.57
2018-02-14T10:42:18.805Z,2.59
2018-02-14T10:43:18.775Z,2.66
2018-02-14T10:44:18.754Z,2.69
2018-02-14T10:45:18.736Z,2.69
2018-02-14T10:46:18.711Z,2.75
2018-02-14T10:47:19.286Z,2.75
2018-02-14T10:48:18.656Z,2.75
2018-02-14T10:49:18.696Z,2.81
2018-02-14T10:50:18.612Z,2.81
2018-02-14T10:51:18.586Z,2.90
2018-02-14T10:52:18.568Z,2.87
2018-02-14T10:53:18.547Z,2.95
2018-02-14T10:54:18.516Z,2.84
2018-02-14T10:55:18.495Z,2.84
2018-02-14T10:56:18.468Z,2.92
2018-02-14T10:57:18.445Z,2.93
2018-02-14T10:58:18.423Z,2.95
2018-02-14T10:59:18.397Z,2.97
2018-02-14T11:00:18.391Z,2.97
2018-02-14T11:01:18.358Z,2.87
2018-02-14T11:02:18.333Z,2.96
2018-02-14T11:03:18.305Z,3.06
2018-02-14T11:04:18.281Z,3.06
2018-02-14T11:05:18.257Z,3.13
2018-02-14T11:06:18.238Z,3.17
2018-02-14T11:07:18.226Z,3.15
2018-02-14T11:08:18.193Z,3.18
2018-02-14T11:09:18.168Z,3.28
2018-02-14T11:10:18.146Z,3.26
2018-02-14T11:11:18.120Z,3.39
2018-02-14T11:12:18.100Z,3.36
2018-02-14T11:13:18.080Z,3.43
2018-02-14T11:14:18.057Z,3.48
2018-02-14T11:15:18.026Z,3.45
2018-02-14T11:16:18.004Z,3.47
2018-02-14T11:17:17.980Z,3.48
2018-02-14T11:18:17.961Z,3.50
2018-02-14T11:19:17.932Z,3.47
2018-02-14T11:20:17.911Z,3.51
2018-02-14T11:21:17.886Z,3.65
2018-02-14T11:22:17.868Z,3.68
2018-02-14T11:23:17.849Z,3.62
2018-02-14T11:24:17.815Z,3.66
2018-02-14T11:25:17.808Z,3.68
2018-02-14T11:26:17.772Z,3.65
2018-02-14T11:27:17.749Z,3.66
2018-02-14T11:28:17.729Z,3.70
2018-02-14T11:29:17.702Z,3.76
2018-02-14T11:30:17.684Z,3.76
2018-02-14T11:31:17.664Z,3.76
2018-02-14T11:32:17.636Z,3.80
2018-02-14T11:33:17.613Z,3.84
2018-02-14T11:34:17.585Z,3.94
2018-02-14T11:35:17.568Z,3.96
2018-02-14T11:36:17.549Z,4.05
2018-02-14T11:37:17.516Z,4.00
2018-02-14T11:38:17.499Z,4.06
2018-02-14T11:39:17.471Z,3.97
2018-02-14T11:40:17.449Z,4.02
2018-02-14T11:41:17.427Z,4.02
2018-02-14T11:42:17.417Z,4.04
2018-02-14T11:43:17.382Z,3.96
2018-02-14T11:44:17.360Z,4.04
2018-02-14T11:45:17.332Z,4.04
2018-02-14T11:46:17.312Z,4.11
2018-02-14T11:47:17.296Z,4.09
2018-02-14T11:48:17.267Z,4.05
2018-02-14T11:49:17.240Z,4.14
2018-02-14T11:50:17.220Z,4.14
2018-02-14T11:51:17.197Z,4.16
2018-02-14T11:52:17.187Z,4.16
2018-02-14T11:53:17.162Z,4.22
2018-02-14T11:54:17.130Z,4.16
2018-02-14T11:55:17.107Z,4.23
2018-02-14T11:56:17.080Z,4.27
2018-02-14T11:57:17.058Z,4.30
2018-02-14T11:58:17.035Z,4.24
2018-02-14T11:59:17.018Z,4.27
2018-02-14T12:00:16.987Z,4.33
2018-02-14T12:01:16.966Z,4.23
2018-02-14T12:02:16.947Z,4.30
2018-02-14T12:03:16.926Z,4.26
2018-02-14T12:04:16.897Z,4.44
2018-02-14T12:05:16.876Z,4.37
2018-02-14T12:06:16.853Z,4.45
2018-02-14T12:07:16.835Z,4.32
2018-02-14T12:08:16.806Z,4.37
2018-02-14T12:09:16.793Z,4.37
2018-02-14T12:10:16.764Z,4.34
2018-02-14T12:11:16.745Z,4.37
2018-02-14T12:12:16.716Z,4.37
2018-02-14T12:13:16.692Z,4.45
2018-02-14T12:14:16.684Z,4.54
2018-02-14T12:15:16.649Z,4.48
2018-02-14T12:16:16.625Z,4.41
2018-02-14T12:17:16.604Z,4.45
2018-02-14T12:18:16.585Z,4.51
2018-02-14T12:19:16.558Z,4.48
2018-02-14T12:20:16.536Z,4.55
2018-02-14T12:21:16.511Z,4.48
2018-02-14T12:22:16.526Z,4.44
2018-02-14T12:23:16.468Z,4.58
2018-02-14T12:24:16.446Z,4.44
2018-02-14T12:25:16.420Z,4.48
2018-02-14T12:26:16.398Z,4.50
2018-02-14T12:27:16.382Z,4.48
2018-02-14T12:28:16.357Z,4.44
2018-02-14T12:29:16.334Z,4.44
2018-02-14T12:30:16.312Z,4.51
2018-02-14T12:31:16.296Z,4.47
2018-02-14T12:32:16.263Z,4.47
2018-02-14T12:33:16.244Z,4.44
2018-02-14T12:34:16.222Z,4.50
2018-02-14T12:35:16.197Z,4.51
2018-02-14T12:36:16.178Z,4.58
2018-02-14T12:37:16.152Z,4.58
2018-02-14T12:38:16.130Z,4.67
2018-02-14T12:39:16.111Z,4.60
2018-02-14T12:40:16.084Z,4.54
2018-02-14T12:41:16.067Z,4.52
2018-02-14T12:42:16.038Z,4.50
2018-02-14T12:43:16.014Z,4.48
2018-02-14T12:44:15.993Z,4.47
2018-02-14T12:45:15.970Z,4.48
2018-02-14T12:46:15.951Z,4.47
2018-02-14T12:47:15.925Z,4.45
2018-02-14T12:48:15.903Z,4.66
2018-02-14T12:49:15.879Z,4.60
2018-02-14T12:50:15.859Z,4.55
2018-02-14T12:51:15.838Z,4.51
2018-02-14T12:52:15.814Z,4.69
2018-02-14T12:53:15.797Z,4.54
2018-02-14T12:54:15.769Z,4.55
2018-02-14T12:55:15.745Z,4.59
2018-02-14T12:56:15.725Z,4.69
2018-02-14T12:57:15.701Z,4.63
2018-02-14T12:58:15.687Z,4.60
2018-02-14T12:59:15.656Z,4.62
2018-02-14T13:00:15.630Z,4.67